Time;durP1;ratioP1;P1;durP2;ratioP2;P2;SDS_P1;SDS_P2;PMS_P1;PMS_P2;Temp;Humidity;BMP_temperature;BMP_pressure;BME280_temperature;BME280_humidity;BME280_pressure;Samples;Min_cycle;Max_cycle;Signal;HPM_P1;HPM_P2
2021/09/25 00:00:30;;;;;;;5.70;2.50;;;17.30;99.90;;;;;;5034528;28;20527;-85
2021/09/25 00:03:03;;;;;;;3.88;2.55;;;17.40;99.90;;;;;;5020542;28;20060;-85
2021/09/25 00:05:38;;;;;;;4.22;2.90;;;17.40;99.90;;;;;;5033582;28;20392;-85
2021/09/25 00:08:11;;;;;;;4.30;2.60;;;17.40;99.90;;;;;;5045403;28;20049;-86
2021/09/25 00:10:40;;;;;;;4.50;2.35;;;17.40;99.90;;;;;;5026124;28;20029;-86
2021/09/25 00:13:13;;;;;;;3.30;2.47;;;17.40;99.90;;;;;;5052564;28;20025;-86
2021/09/25 00:15:43;;;;;;;3.65;2.72;;;17.40;99.90;;;;;;5036357;28;20021;-86
2021/09/25 00:18:12;;;;;;;3.83;2.55;;;17.40;99.90;;;;;;5029794;28;20025;-83
2021/09/25 00:20:38;;;;;;;4.70;3.00;;;17.40;99.90;;;;;;5029841;28;20552;-83
2021/09/25 00:23:14;;;;;;;4.25;2.92;;;17.40;99.90;;;;;;5040373;28;20093;-83
2021/09/25 00:25:39;;;;;;;4.47;2.42;;;17.40;99.90;;;;;;5038134;28;20443;-84
2021/09/25 00:28:06;;;;;;;5.15;3.45;;;17.30;99.90;;;;;;5030565;28;20101;-83
2021/09/25 00:30:36;;;;;;;4.38;2.35;;;17.40;99.90;;;;;;5047036;28;20036;-83
2021/09/25 00:33:05;;;;;;;4.50;2.78;;;17.30;99.90;;;;;;5023035;28;20029;-83
2021/09/25 00:35:34;;;;;;;4.45;2.20;;;17.30;99.90;;;;;;5054895;28;20048;-83
2021/09/25 00:37:59;;;;;;;4.00;2.30;;;17.40;99.90;;;;;;5015083;28;20029;-83
2021/09/25 00:40:28;;;;;;;5.40;3.25;;;17.40;99.90;;;;;;5011469;28;20484;-83
2021/09/25 00:42:58;;;;;;;5.38;2.45;;;17.30;99.90;;;;;;5041328;28;20503;-83
2021/09/25 00:45:29;;;;;;;4.38;2.50;;;17.30;99.90;;;;;;5019363;28;20033;-83
2021/09/25 00:47:55;;;;;;;3.90;2.40;;;17.40;99.90;;;;;;5049585;28;20025;-83
2021/09/25 00:50:27;;;;;;;3.60;2.28;;;17.30;99.90;;;;;;5026962;28;20358;-83
2021/09/25 00:52:54;;;;;;;3.35;1.73;;;17.30;99.90;;;;;;5023788;28;20032;-83
2021/09/25 00:55:29;;;;;;;3.30;2.03;;;17.40;99.90;;;;;;5034102;28;20127;-83
2021/09/25 00:58:06;;;;;;;4.88;2.60;;;17.40;99.90;;;;;;5041106;28;20070;-83
2021/09/25 01:00:38;;;;;;;3.53;2.20;;;17.30;99.90;;;;;;5037094;28;20155;-84
2021/09/25 01:03:07;;;;;;;2.95;1.77;;;17.30;99.90;;;;;;5021867;28;20029;-84
2021/09/25 01:05:44;;;;;;;3.35;2.47;;;17.30;99.90;;;;;;5051513;28;20021;-84
2021/09/25 01:08:13;;;;;;;3.58;2.25;;;17.30;99.90;;;;;;5043357;28;20025;-84
2021/09/25 01:10:42;;;;;;;5.00;2.30;;;17.30;99.90;;;;;;5024845;28;20025;-85
2021/09/25 01:13:08;;;;;;;4.55;2.42;;;17.30;99.90;;;;;;5033258;28;20037;-84
2021/09/25 01:15:37;;;;;;;3.70;2.08;;;17.30;99.90;;;;;;5034249;28;20033;-84
2021/09/25 01:18:05;;;;;;;4.85;2.90;;;17.20;99.90;;;;;;5024071;28;20094;-84
2021/09/25 01:20:31;;;;;;;2.92;1.80;;;17.20;99.90;;;;;;5025852;28;20045;-83
2021/09/25 01:23:00;;;;;;;5.38;2.50;;;17.20;99.90;;;;;;5031607;28;20492;-84
2021/09/25 01:25:28;;;;;;;4.80;2.88;;;17.20;99.90;;;;;;5035015;28;20025;-83
2021/09/25 01:27:54;;;;;;;3.88;2.80;;;17.20;99.90;;;;;;5022188;28;20032;-84
2021/09/25 01:30:21;;;;;;;5.72;2.92;;;17.20;99.90;;;;;;5027467;28;20063;-83
2021/09/25 01:32:48;;;;;;;4.47;3.40;;;17.20;99.90;;;;;;5047710;28;20052;-84
2021/09/25 01:35:16;;;;;;;4.40;3.22;;;17.10;99.90;;;;;;5020454;28;20056;-83
2021/09/25 01:37:43;;;;;;;5.88;3.70;;;17.10;99.90;;;;;;5032616;28;20473;-84
2021/09/25 01:40:15;;;;;;;6.32;3.80;;;17.10;99.90;;;;;;5024609;28;20025;-83
2021/09/25 01:42:42;;;;;;;5.28;3.45;;;17.10;99.90;;;;;;5024592;28;20049;-84
2021/09/25 01:45:12;;;;;;;7.10;4.10;;;17.10;99.90;;;;;;5032692;28;20445;-84
2021/09/25 01:47:41;;;;;;;5.35;3.35;;;17.10;99.90;;;;;;5016401;28;20022;-84
2021/09/25 01:50:10;;;;;;;7.55;3.92;;;17.10;99.90;;;;;;5036767;28;20021;-84
2021/09/25 01:52:36;;;;;;;5.07;3.30;;;17.10;99.90;;;;;;5025170;28;20030;-83
2021/09/25 01:55:02;;;;;;;5.72;3.75;;;17.10;99.90;;;;;;5031692;28;20140;-84
2021/09/25 01:57:28;;;;;;;5.40;3.67;;;17.10;99.90;;;;;;5019778;28;20025;-84
2021/09/25 01:59:53;;;;;;;8.20;4.82;;;17.10;99.90;;;;;;5030931;28;20045;-84
2021/09/25 02:02:20;;;;;;;8.20;5.13;;;17.10;99.90;;;;;;5025859;28;20104;-86
2021/09/25 02:04:48;;;;;;;9.20;4.72;;;17.10;99.90;;;;;;5007048;28;20461;-84
2021/09/25 02:07:18;;;;;;;7.53;5.00;;;17.10;99.90;;;;;;5033441;28;20033;-85
2021/09/25 02:09:46;;;;;;;6.10;4.60;;;17.10;99.90;;;;;;5031457;28;20026;-84
2021/09/25 02:12:12;;;;;;;7.15;4.50;;;17.00;99.90;;;;;;5007936;28;20036;-84
2021/09/25 02:14:39;;;;;;;7.72;4.80;;;17.00;99.90;;;;;;5024407;28;20025;-84
2021/09/25 02:17:05;;;;;;;7.53;4.80;;;17.00;99.90;;;;;;5031644;28;20021;-84
2021/09/25 02:19:32;;;;;;;9.73;5.05;;;17.00;99.90;;;;;;5019586;28;20072;-84
2021/09/25 02:21:58;;;;;;;7.65;5.03;;;17.00;99.90;;;;;;5029697;28;20389;-83
2021/09/25 02:24:24;;;;;;;8.43;5.10;;;17.00;99.90;;;;;;5043800;28;20021;-84
2021/09/25 02:26:50;;;;;;;6.32;4.47;;;17.00;99.90;;;;;;5035310;28;20086;-83
2021/09/25 02:29:19;;;;;;;7.68;4.88;;;17.00;99.90;;;;;;5019262;28;20084;-84
2021/09/25 02:31:44;;;;;;;8.80;5.30;;;16.90;99.90;;;;;;5035705;28;20479;-84
2021/09/25 02:34:10;;;;;;;7.95;5.05;;;16.90;99.90;;;;;;5027787;28;20104;-84
2021/09/25 02:36:36;;;;;;;6.93;4.78;;;16.90;99.90;;;;;;5027752;28;20037;-84
2021/09/25 02:39:02;;;;;;;7.53;4.45;;;17.00;99.90;;;;;;5020451;28;20029;-84
2021/09/25 02:41:28;;;;;;;6.88;4.40;;;16.90;99.90;;;;;;5031704;28;20029;-84
2021/09/25 02:43:54;;;;;;;6.25;4.35;;;16.90;99.90;;;;;;5005138;28;20120;-83
2021/09/25 02:46:20;;;;;;;9.40;4.28;;;16.90;99.90;;;;;;5035396;28;20031;-84
2021/09/25 02:48:46;;;;;;;6.40;4.40;;;16.90;99.90;;;;;;5022533;28;20041;-85
2021/09/25 02:51:12;;;;;;;6.05;4.18;;;16.90;99.90;;;;;;5032026;28;20025;-85
2021/09/25 02:53:38;;;;;;;6.45;4.45;;;16.90;99.90;;;;;;5031948;28;20018;-84
2021/09/25 02:56:06;;;;;;;7.82;4.85;;;16.90;99.90;;;;;;5022645;28;20032;-85
2021/09/25 02:58:32;;;;;;;7.93;5.10;;;16.80;99.90;;;;;;5024663;28;20047;-85
2021/09/25 03:00:58;;;;;;;9.82;4.85;;;16.80;99.90;;;;;;5029981;28;20465;-85
2021/09/25 03:03:23;;;;;;;8.02;4.60;;;16.80;99.90;;;;;;5033799;28;20029;-84
2021/09/25 03:05:50;;;;;;;7.45;4.78;;;16.70;99.90;;;;;;5020218;28;20032;-85
2021/09/25 03:08:16;;;;;;;6.95;4.53;;;16.70;99.90;;;;;;5026472;28;20473;-85
2021/09/25 03:10:42;;;;;;;7.45;4.38;;;16.70;99.90;;;;;;5027142;28;20037;-85
2021/09/25 03:13:07;;;;;;;7.18;4.65;;;16.70;99.90;;;;;;5037244;28;20116;-84
2021/09/25 03:15:33;;;;;;;7.28;4.35;;;16.70;99.90;;;;;;5034551;28;20423;-84
2021/09/25 03:17:59;;;;;;;8.77;4.88;;;16.60;99.90;;;;;;5028521;28;20443;-85
2021/09/25 03:20:25;;;;;;;6.72;4.57;;;16.60;99.90;;;;;;5025087;28;20041;-85
2021/09/25 03:22:51;;;;;;;7.75;5.28;;;16.60;99.90;;;;;;5021509;28;20381;-85
2021/09/25 03:25:17;;;;;;;8.55;5.03;;;16.60;99.90;;;;;;5031494;28;20025;-84
2021/09/25 03:27:43;;;;;;;6.75;4.88;;;16.60;99.90;;;;;;5019363;28;20021;-85
2021/09/25 03:30:10;;;;;;;7.45;4.72;;;16.50;99.90;;;;;;5027440;28;20071;-84
2021/09/25 03:32:40;;;;;;;8.10;5.22;;;16.60;99.90;;;;;;5044445;28;20455;-84
2021/09/25 03:35:06;;;;;;;7.45;5.30;;;16.60;99.90;;;;;;5052888;28;20025;-84
2021/09/25 03:37:32;;;;;;;7.50;5.50;;;16.50;99.90;;;;;;5018484;28;20021;-84
2021/09/25 03:40:03;;;;;;;8.63;5.75;;;16.60;99.90;;;;;;5028512;28;20037;-84
2021/09/25 03:42:34;;;;;;;8.80;5.88;;;16.50;99.90;;;;;;5043256;28;20033;-85
2021/09/25 03:45:04;;;;;;;8.38;5.53;;;16.50;99.90;;;;;;5020360;28;20109;-85
2021/09/25 03:47:36;;;;;;;8.05;5.50;;;16.60;99.90;;;;;;5031342;28;20029;-85
2021/09/25 03:50:02;;;;;;;7.57;5.10;;;16.60;99.90;;;;;;5039863;28;20060;-84
2021/09/25 03:52:28;;;;;;;9.15;5.43;;;16.50;99.90;;;;;;5044025;28;20104;-84
2021/09/25 03:54:54;;;;;;;10.05;6.25;;;16.60;99.90;;;;;;5032899;28;20068;-84
2021/09/25 03:57:22;;;;;;;9.25;6.18;;;16.60;99.90;;;;;;5022408;28;20385;-84
2021/09/25 03:59:48;;;;;;;9.80;6.63;;;16.60;99.90;;;;;;5033540;28;20021;-85
2021/09/25 04:02:13;;;;;;;8.18;5.78;;;16.50;99.90;;;;;;5044356;28;20027;-85
2021/09/25 04:04:39;;;;;;;9.02;5.72;;;16.50;99.90;;;;;;5038456;28;20061;-84
2021/09/25 04:07:05;;;;;;;10.02;6.20;;;16.60;99.90;;;;;;5023183;28;20030;-84
2021/09/25 04:09:30;;;;;;;10.27;6.40;;;16.50;99.90;;;;;;5035043;28;20025;-84
2021/09/25 04:12:02;;;;;;;8.18;5.35;;;16.50;99.90;;;;;;5024193;28;20021;-84
2021/09/25 04:14:33;;;;;;;10.50;5.38;;;16.60;99.90;;;;;;5028144;28;20028;-84
2021/09/25 04:17:02;;;;;;;7.43;4.97;;;16.50;99.90;;;;;;5033191;28;20025;-84
2021/09/25 04:19:29;;;;;;;8.50;5.97;;;16.60;99.90;;;;;;5031933;28;20029;-83
2021/09/25 04:21:58;;;;;;;8.85;5.50;;;16.60;99.90;;;;;;5050177;28;20073;-84
2021/09/25 04:24:23;;;;;;;7.53;5.47;;;16.50;99.90;;;;;;5027991;28;20051;-83
2021/09/25 04:26:51;;;;;;;7.25;4.93;;;16.60;99.90;;;;;;5038010;28;20059;-84
2021/09/25 04:29:21;;;;;;;9.20;5.35;;;16.50;99.90;;;;;;5021482;28;20029;-83
2021/09/25 04:31:46;;;;;;;9.85;5.80;;;16.60;99.90;;;;;;5037928;28;20029;-84
2021/09/25 04:34:14;;;;;;;7.70;5.07;;;16.60;99.90;;;;;;5029783;28;20032;-84
2021/09/25 04:36:40;;;;;;;9.07;5.63;;;16.50;99.90;;;;;;5030120;28;20031;-85
2021/09/25 04:39:09;;;;;;;9.48;6.35;;;16.50;99.90;;;;;;5022261;28;20100;-84
2021/09/25 04:41:35;;;;;;;10.43;7.03;;;16.50;99.90;;;;;;5033938;28;20025;-84
2021/09/25 04:44:03;;;;;;;10.45;6.25;;;16.50;99.90;;;;;;5008330;28;20079;-84
2021/09/25 04:46:30;;;;;;;11.45;7.45;;;16.40;99.90;;;;;;5055334;28;20037;-84
2021/09/25 04:48:55;;;;;;;8.18;6.13;;;16.40;99.90;;;;;;5022635;28;20040;-85
2021/09/25 04:51:21;;;;;;;9.15;5.88;;;16.40;99.90;;;;;;5034241;28;20017;-84
2021/09/25 04:53:47;;;;;;;11.07;7.68;;;16.50;99.90;;;;;;5022471;28;20013;-84
2021/09/25 04:56:13;;;;;;;12.27;8.02;;;16.40;99.90;;;;;;5020957;28;20123;-83
2021/09/25 04:58:42;;;;;;;8.57;5.70;;;16.40;99.90;;;;;;5027170;28;20112;-84
2021/09/25 05:01:11;;;;;;;10.57;6.85;;;16.40;99.90;;;;;;5025803;28;20029;-84
2021/09/25 05:03:42;;;;;;;9.88;6.15;;;16.40;99.90;;;;;;5025161;28;20369;-84
2021/09/25 05:06:11;;;;;;;9.60;6.22;;;16.40;99.90;;;;;;5025196;28;20033;-83
2021/09/25 05:08:45;;;;;;;9.52;6.28;;;16.40;99.90;;;;;;5024609;28;20025;-84
2021/09/25 05:11:18;;;;;;;10.05;5.85;;;16.40;99.90;;;;;;5001635;28;20417;-84
2021/09/25 05:13:50;;;;;;;10.82;6.72;;;16.40;99.90;;;;;;5019618;28;20034;-85
2021/09/25 05:16:27;;;;;;;10.18;6.68;;;16.40;99.90;;;;;;5026076;28;20018;-84
2021/09/25 05:18:59;;;;;;;8.00;5.95;;;16.40;99.90;;;;;;5015377;28;20025;-85
2021/09/25 05:21:34;;;;;;;9.35;5.57;;;16.40;99.90;;;;;;5027894;28;20049;-84
2021/09/25 05:24:07;;;;;;;8.13;5.22;;;16.40;99.90;;;;;;5018123;28;20025;-84
2021/09/25 05:26:35;;;;;;;7.60;5.70;;;16.40;99.90;;;;;;5031246;28;20080;-85
2021/09/25 05:29:09;;;;;;;7.78;5.47;;;16.30;99.90;;;;;;5016330;28;20109;-84
2021/09/25 05:31:41;;;;;;;7.85;5.15;;;16.40;99.90;;;;;;5029242;28;20465;-84
2021/09/25 05:34:12;;;;;;;8.00;4.72;;;16.40;99.90;;;;;;5020791;28;20030;-84
2021/09/25 05:36:48;;;;;;;8.48;5.07;;;16.40;99.90;;;;;;5032893;28;20030;-84
2021/09/25 05:39:15;;;;;;;7.32;5.18;;;16.40;99.90;;;;;;5014833;28;20029;-84
2021/09/25 05:41:43;;;;;;;6.43;4.57;;;16.40;99.90;;;;;;5021651;28;20029;-85
2021/09/25 05:44:12;;;;;;;7.45;5.38;;;16.40;99.90;;;;;;5019879;28;20021;-83
2021/09/25 05:46:41;;;;;;;6.45;4.20;;;16.40;99.90;;;;;;5021619;28;20033;-84
2021/09/25 05:49:09;;;;;;;9.65;4.25;;;16.40;99.90;;;;;;5020975;28;20485;-84
2021/09/25 05:51:38;;;;;;;8.57;5.85;;;16.40;99.90;;;;;;5022995;28;20025;-84
2021/09/25 05:54:05;;;;;;;7.45;5.07;;;16.40;99.90;;;;;;5014649;28;20058;-85
2021/09/25 05:56:34;;;;;;;6.95;4.65;;;16.40;99.90;;;;;;5022161;28;20025;-86
2021/09/25 05:59:03;;;;;;;5.80;4.40;;;16.50;99.90;;;;;;5016191;28;20030;-85
2021/09/25 06:01:29;;;;;;;8.90;5.35;;;16.50;99.90;;;;;;5029911;28;20024;-85
2021/09/25 06:03:54;;;;;;;8.13;5.40;;;16.50;99.90;;;;;;5026024;28;20026;-85
2021/09/25 06:06:21;;;;;;;6.78;4.80;;;16.40;99.90;;;;;;5020636;28;20022;-86
2021/09/25 06:08:47;;;;;;;6.80;4.10;;;16.50;99.90;;;;;;5018013;28;20076;-85
2021/09/25 06:11:14;;;;;;;7.78;4.97;;;16.50;99.90;;;;;;5027066;28;20029;-84
2021/09/25 06:13:40;;;;;;;7.03;4.55;;;16.50;99.90;;;;;;5014835;28;20021;-86
2021/09/25 06:16:05;;;;;;;6.85;4.55;;;16.50;99.90;;;;;;5022817;28;20379;-84
2021/09/25 06:18:39;;;;;;;7.50;4.50;;;16.50;99.90;;;;;;5021614;28;20025;-85
2021/09/25 06:21:05;;;;;;;8.48;5.15;;;16.50;99.90;;;;;;4999449;28;20483;-85
2021/09/25 06:23:30;;;;;;;8.20;5.13;;;16.50;99.90;;;;;;5020872;28;20036;-85
2021/09/25 06:26:04;;;;;;;7.32;4.65;;;16.50;99.90;;;;;;5021110;28;20476;-86
2021/09/25 06:28:29;;;;;;;;;;;16.50;99.90;;;;;;5022561;28;20037;-85
2021/09/25 06:31:02;;;;;;;8.10;5.45;;;16.50;99.90;;;;;;5019095;28;20308;-87
2021/09/25 06:33:31;;;;;;;6.75;4.25;;;16.50;99.90;;;;;;5019857;28;20032;-85
2021/09/25 06:35:58;;;;;;;7.60;5.13;;;16.50;99.90;;;;;;5020013;28;20513;-85
2021/09/25 06:38:28;;;;;;;7.57;5.18;;;16.60;99.90;;;;;;5018933;28;20098;-84
2021/09/25 06:41:05;;;;;;;7.05;5.15;;;16.60;99.90;;;;;;5020078;28;20037;-85
2021/09/25 06:43:42;;;;;;;5.97;4.45;;;16.60;99.90;;;;;;5003222;28;20021;-84
2021/09/25 06:46:19;;;;;;;7.38;4.60;;;16.70;99.90;;;;;;5020231;28;20025;-83
2021/09/25 06:49:00;;;;;;;8.77;5.20;;;16.70;99.90;;;;;;5018379;28;20030;-84
2021/09/25 06:51:27;;;;;;;8.93;4.82;;;16.70;99.90;;;;;;5011891;28;20037;-84
2021/09/25 06:54:05;;;;;;;7.88;4.38;;;16.80;99.90;;;;;;5020721;28;20062;-84
2021/09/25 06:56:44;;;;;;;7.82;4.75;;;16.80;99.90;;;;;;5020001;28;20104;-85
2021/09/25 06:59:16;;;;;;;6.70;4.82;;;16.90;99.90;;;;;;5020458;28;20087;-83
2021/09/25 07:01:53;;;;;;;8.32;5.53;;;16.90;99.90;;;;;;5005139;28;20095;-84
2021/09/25 07:04:23;;;;;;;8.45;5.13;;;17.00;99.90;;;;;;5020294;28;20022;-84
2021/09/25 07:06:56;;;;;;;8.00;5.07;;;17.00;99.90;;;;;;5002257;28;20056;-85
2021/09/25 07:09:32;;;;;;;7.45;5.40;;;17.00;99.90;;;;;;5002799;28;20124;-85
2021/09/25 07:12:03;;;;;;;7.70;4.93;;;17.00;99.90;;;;;;5020945;28;20037;-84
2021/09/25 07:14:39;;;;;;;7.75;5.75;;;17.00;99.90;;;;;;5005389;28;20037;-86
2021/09/25 07:17:28;;;;;;;8.77;5.55;;;17.10;99.90;;;;;;5015935;28;20036;-85
2021/09/25 07:20:00;;;;;;;8.63;5.80;;;17.10;99.90;;;;;;5025116;28;20049;-85
2021/09/25 07:22:28;;;;;;;6.47;4.30;;;17.10;99.90;;;;;;5041465;28;20095;-85
2021/09/25 07:24:57;;;;;;;7.90;5.00;;;17.10;99.90;;;;;;5036803;28;20124;-86
2021/09/25 07:27:25;;;;;;;8.20;5.43;;;17.10;99.90;;;;;;5014771;28;20060;-86
2021/09/25 07:29:51;;;;;;;7.82;5.30;;;17.20;99.90;;;;;;5005927;28;20444;-85
2021/09/25 07:32:18;;;;;;;11.57;6.50;;;17.20;99.90;;;;;;5046139;28;20010;-85
2021/09/25 07:34:45;;;;;;;9.48;5.80;;;17.20;99.90;;;;;;5030042;28;20037;-85
2021/09/25 07:37:17;;;;;;;8.35;5.32;;;17.20;99.90;;;;;;5020742;28;20026;-85
2021/09/25 07:39:51;;;;;;;7.30;4.93;;;17.30;99.90;;;;;;5038454;28;20112;-85
2021/09/25 07:42:26;;;;;;;7.82;5.15;;;17.30;99.90;;;;;;5023916;28;20022;-86
2021/09/25 07:44:58;;;;;;;9.45;5.68;;;17.40;99.90;;;;;;5048389;28;20037;-86
2021/09/25 07:47:26;;;;;;;7.78;5.28;;;17.40;99.90;;;;;;5035303;28;20039;-85
2021/09/25 07:50:01;;;;;;;11.20;6.78;;;17.40;99.90;;;;;;5006098;28;20029;-86
2021/09/25 07:52:32;;;;;;;8.55;5.80;;;17.40;99.90;;;;;;5044253;28;20018;-85
2021/09/25 07:55:09;;;;;;;8.77;5.80;;;17.50;99.90;;;;;;5031417;28;20029;-85
2021/09/25 07:57:44;;;;;;;8.80;5.20;;;17.50;99.90;;;;;;5033374;28;20071;-85
2021/09/25 08:00:13;;;;;;;8.27;4.85;;;17.50;99.90;;;;;;5024549;28;20021;-85
2021/09/25 08:02:42;;;;;;;11.00;5.72;;;17.50;99.90;;;;;;5024162;28;20083;-85
2021/09/25 08:05:13;;;;;;;8.07;5.60;;;17.60;99.90;;;;;;5032227;28;20029;-85
2021/09/25 08:07:45;;;;;;;8.65;5.10;;;17.60;99.90;;;;;;5016956;28;20417;-84
2021/09/25 08:10:13;;;;;;;9.60;5.65;;;17.60;99.90;;;;;;5015308;28;20021;-84
2021/09/25 08:12:43;;;;;;;7.80;5.65;;;17.70;99.90;;;;;;5024097;28;20079;-84
2021/09/25 08:15:17;;;;;;;8.00;6.13;;;17.70;99.90;;;;;;5032389;28;20060;-84
2021/09/25 08:17:58;;;;;;;10.38;5.20;;;17.70;99.90;;;;;;5000610;28;20121;-84
2021/09/25 08:20:26;;;;;;;8.15;5.28;;;17.80;99.90;;;;;;5023068;28;20441;-84
2021/09/25 08:23:02;;;;;;;7.50;5.00;;;17.80;99.90;;;;;;5027413;28;20036;-84
2021/09/25 08:25:31;;;;;;;8.63;5.93;;;17.80;99.90;;;;;;5036872;28;20021;-84
2021/09/25 08:28:05;;;;;;;8.45;5.47;;;17.90;99.90;;;;;;5036695;28;20021;-85
2021/09/25 08:30:35;;;;;;;10.27;5.78;;;17.90;99.90;;;;;;5008065;28;20045;-84
2021/09/25 08:33:06;;;;;;;9.57;5.93;;;17.90;99.90;;;;;;5030450;28;20025;-85
2021/09/25 08:35:35;;;;;;;7.55;5.60;;;18.00;99.90;;;;;;5037350;28;20176;-84
2021/09/25 08:38:01;;;;;;;8.23;6.00;;;18.00;99.90;;;;;;5024540;28;20022;-85
2021/09/25 08:40:32;;;;;;;10.02;6.60;;;18.00;99.90;;;;;;5009865;28;20090;-85
2021/09/25 08:43:02;;;;;;;8.52;6.60;;;18.00;99.90;;;;;;5035835;28;20025;-84
2021/09/25 08:45:28;;;;;;;8.52;6.35;;;18.00;99.90;;;;;;5019569;28;20033;-85
2021/09/25 08:47:56;;;;;;;10.02;6.72;;;18.00;99.90;;;;;;5029587;28;20389;-84
2021/09/25 08:50:21;;;;;;;8.70;6.32;;;17.90;99.90;;;;;;5025327;28;20376;-85
2021/09/25 08:52:47;;;;;;;8.85;5.45;;;17.90;99.90;;;;;;5022493;28;20060;-84
2021/09/25 08:55:14;;;;;;;9.60;6.07;;;17.90;99.90;;;;;;5032289;28;20124;-85
2021/09/25 08:57:39;;;;;;;9.18;6.03;;;18.00;99.90;;;;;;5031655;28;20018;-85
2021/09/25 09:00:33;;;;;;;9.30;5.82;;;18.00;99.90;;;;;;5022540;28;20024;-85
2021/09/25 09:03:16;;;;;;;9.07;6.30;;;18.10;99.90;;;;;;5021024;28;20022;-84
2021/09/25 09:05:41;;;;;;;9.70;6.55;;;18.20;99.90;;;;;;5035649;28;20060;-84
2021/09/25 09:08:08;;;;;;;10.75;6.68;;;18.10;99.90;;;;;;5046985;28;20071;-85
2021/09/25 09:10:35;;;;;;;11.90;6.82;;;18.20;99.90;;;;;;5024479;28;20036;-84
2021/09/25 09:13:03;;;;;;;8.52;6.32;;;18.10;99.90;;;;;;5035378;28;20026;-83
2021/09/25 09:15:41;;;;;;;9.98;6.75;;;18.20;99.90;;;;;;5049238;28;20471;-85
2021/09/25 09:18:20;;;;;;;8.95;6.20;;;18.20;99.90;;;;;;5040071;28;20392;-84
2021/09/25 09:21:20;;;;;;;9.43;6.22;;;18.20;99.90;;;;;;5024647;28;20399;-84
2021/09/25 09:23:51;;;;;;;9.20;5.18;;;18.30;99.90;;;;;;5025349;28;20040;-83
2021/09/25 09:26:23;;;;;;;8.52;5.57;;;18.30;99.90;;;;;;5016969;28;20057;-84
2021/09/25 09:28:58;;;;;;;8.77;6.10;;;18.30;99.90;;;;;;5026367;28;20029;-84
2021/09/25 09:31:28;;;;;;;9.75;6.35;;;18.40;99.90;;;;;;5031606;28;20029;-84
2021/09/25 09:34:02;;;;;;;12.88;7.65;;;18.50;99.90;;;;;;5033799;28;20017;-84
2021/09/25 09:36:36;;;;;;;10.32;6.47;;;18.50;99.90;;;;;;5019550;28;20025;-84
2021/09/25 09:39:17;;;;;;;12.43;8.27;;;18.40;99.90;;;;;;5028169;28;20515;-84
2021/09/25 09:41:58;;;;;;;9.02;7.32;;;18.50;99.90;;;;;;5016727;28;20025;-84
2021/09/25 09:44:33;;;;;;;9.68;6.95;;;18.50;99.90;;;;;;5040665;28;20029;-84
2021/09/25 09:47:10;;;;;;;10.07;7.20;;;18.50;99.90;;;;;;5011935;28;20094;-84
2021/09/25 09:49:41;;;;;;;11.13;6.88;;;18.50;99.90;;;;;;5000278;28;20029;-84
2021/09/25 09:52:12;;;;;;;12.27;8.63;;;18.60;99.90;;;;;;5009620;28;20107;-85
2021/09/25 09:54:42;;;;;;;11.35;7.93;;;18.60;99.90;;;;;;5026271;28;20052;-84
2021/09/25 09:57:13;;;;;;;12.15;7.68;;;18.60;99.90;;;;;;5018309;28;20065;-85
2021/09/25 09:59:40;;;;;;;10.50;6.90;;;18.60;99.90;;;;;;5014590;28;20371;-85
2021/09/25 10:02:07;;;;;;;13.63;9.20;;;18.70;99.90;;;;;;5039533;28;20021;-85
2021/09/25 10:04:34;;;;;;;10.60;7.63;;;18.70;99.90;;;;;;5024775;28;20038;-85
2021/09/25 10:07:02;;;;;;;13.43;8.32;;;18.70;99.90;;;;;;5020260;28;20022;-85
2021/09/25 10:09:30;;;;;;;12.40;8.18;;;18.70;99.90;;;;;;5018952;28;20041;-84
2021/09/25 10:11:59;;;;;;;10.43;7.25;;;18.80;99.90;;;;;;5031951;28;20066;-85
2021/09/25 10:14:33;;;;;;;11.13;7.05;;;18.80;99.90;;;;;;5026063;28;20017;-84
2021/09/25 10:17:01;;;;;;;9.48;6.53;;;19.00;99.90;;;;;;5021775;28;20025;-84
2021/09/25 10:19:33;;;;;;;9.48;6.18;;;19.10;99.90;;;;;;5032363;28;20025;-85
2021/09/25 10:22:16;;;;;;;11.07;7.38;;;19.10;99.90;;;;;;5038912;28;20116;-85
2021/09/25 10:24:52;;;;;;;10.23;7.72;;;19.20;99.90;;;;;;5021891;28;20028;-85
2021/09/25 10:27:18;;;;;;;9.15;6.65;;;19.30;99.90;;;;;;5030746;28;20025;-84
2021/09/25 10:29:46;;;;;;;10.07;7.05;;;19.30;99.90;;;;;;5018101;28;20044;-84
2021/09/25 10:32:27;;;;;;;8.68;6.57;;;19.40;99.90;;;;;;5043546;28;20410;-84
2021/09/25 10:35:04;;;;;;;12.25;7.70;;;19.50;99.90;;;;;;5027528;28;20488;-85
2021/09/25 10:37:43;;;;;;;11.70;7.55;;;19.60;99.90;;;;;;5019486;28;20068;-85
2021/09/25 10:40:20;;;;;;;10.52;7.32;;;19.60;99.90;;;;;;5027512;28;20037;-84
2021/09/25 10:42:52;;;;;;;13.50;8.77;;;19.60;99.90;;;;;;5028495;28;20025;-84
2021/09/25 10:45:25;;;;;;;13.30;8.10;;;19.60;99.90;;;;;;5019316;28;20116;-84
2021/09/25 10:48:14;;;;;;;11.60;8.05;;;19.60;99.90;;;;;;5030232;28;20473;-84
2021/09/25 10:51:02;;;;;;;10.05;7.47;;;19.60;99.90;;;;;;5027773;28;20029;-85
2021/09/25 10:53:33;;;;;;;13.02;7.93;;;19.60;99.90;;;;;;5019118;28;20026;-85
2021/09/25 10:56:03;;;;;;;10.50;8.23;;;19.60;99.90;;;;;;5029012;28;20076;-85
2021/09/25 10:58:32;;;;;;;12.57;7.88;;;19.70;99.90;;;;;;5009538;28;20031;-85
2021/09/25 11:01:15;;;;;;;12.70;8.77;;;19.80;99.90;;;;;;5020938;28;20028;-84
2021/09/25 11:03:46;;;;;;;10.38;7.47;;;19.80;99.90;;;;;;5036961;28;20289;-85
2021/09/25 11:06:19;;;;;;;13.75;10.70;;;19.90;99.90;;;;;;5027371;28;20021;-84
2021/09/25 11:08:57;;;;;;;14.40;8.25;;;20.00;99.90;;;;;;5028029;28;20024;-85
2021/09/25 11:11:45;;;;;;;12.20;8.10;;;20.10;99.90;;;;;;5033746;28;20036;-85
2021/09/25 11:14:32;;;;;;;14.10;9.38;;;20.20;99.90;;;;;;5023379;28;20033;-86
2021/09/25 11:17:09;;;;;;;12.93;8.90;;;20.20;99.90;;;;;;5010668;28;20473;-85
2021/09/25 11:19:54;;;;;;;14.27;9.07;;;20.20;99.90;;;;;;5049544;28;20469;-84
2021/09/25 11:22:24;;;;;;;12.07;8.27;;;20.20;99.90;;;;;;5024711;28;20032;-84
2021/09/25 11:25:13;;;;;;;12.57;8.05;;;20.20;99.90;;;;;;5034636;28;20033;-85
2021/09/25 11:27:40;;;;;;;12.43;8.90;;;20.30;99.90;;;;;;5018663;28;20439;-84
2021/09/25 11:30:26;;;;;;;12.10;8.75;;;20.40;99.90;;;;;;5045532;28;20560;-85
2021/09/25 11:32:56;;;;;;;14.18;9.65;;;20.50;99.90;;;;;;5029245;28;20044;-85
2021/09/25 11:35:27;;;;;;;11.32;8.73;;;20.40;99.90;;;;;;5036430;28;20109;-85
2021/09/25 11:37:56;;;;;;;12.73;9.25;;;20.50;99.90;;;;;;5029382;28;20097;-85
2021/09/25 11:40:33;;;;;;;14.52;9.52;;;20.50;99.90;;;;;;5041977;28;20020;-85
2021/09/25 11:43:21;;;;;;;14.30;10.65;;;20.50;99.90;;;;;;5035170;28;20370;-84
2021/09/25 11:45:50;;;;;;;14.10;9.60;;;20.50;99.90;;;;;;5019696;28;20530;-85
2021/09/25 11:48:19;;;;;;;15.88;11.70;;;20.50;99.90;;;;;;5026274;28;20046;-85
2021/09/25 11:50:49;;;;;;;14.50;9.60;;;20.50;99.90;;;;;;5045377;28;20057;-85
2021/09/25 11:53:18;;;;;;;17.95;11.98;;;20.50;99.90;;;;;;5052521;28;20017;-85
2021/09/25 11:55:46;;;;;;;16.38;11.82;;;20.50;99.90;;;;;;5019314;28;20461;-85
2021/09/25 11:58:15;;;;;;;14.73;10.35;;;20.60;99.90;;;;;;5026166;28;20470;-86
2021/09/25 12:00:42;;;;;;;13.73;8.93;;;20.60;99.90;;;;;;5010543;28;20029;-85
2021/09/25 12:03:09;;;;;;;14.27;9.68;;;20.70;99.90;;;;;;5019072;28;20032;-84
2021/09/25 12:05:38;;;;;;;12.68;9.30;;;20.80;99.90;;;;;;5014845;28;20034;-86
2021/09/25 12:08:19;;;;;;;12.55;9.35;;;20.80;99.90;;;;;;5016515;28;20029;-87
2021/09/25 12:10:51;;;;;;;13.27;8.40;;;20.90;99.90;;;;;;5040412;28;20494;-85
2021/09/25 12:13:41;;;;;;;13.10;10.23;;;21.00;99.90;;;;;;5031148;28;20021;-86
2021/09/25 12:16:16;;;;;;;13.40;9.60;;;21.20;99.90;;;;;;5026793;28;20295;-84
2021/09/25 12:18:51;;;;;;;14.52;11.00;;;21.20;99.90;;;;;;5028536;28;20052;-85
2021/09/25 12:21:20;;;;;;;16.08;11.15;;;21.30;99.90;;;;;;5036823;28;20128;-85
2021/09/25 12:23:52;;;;;;;17.02;12.05;;;21.30;99.90;;;;;;5053987;28;20048;-85
2021/09/25 12:26:29;;;;;;;16.83;11.45;;;21.40;99.90;;;;;;5045098;28;20412;-85
2021/09/25 12:29:03;;;;;;;15.75;11.80;;;21.40;99.90;;;;;;5030047;28;20116;-85
2021/09/25 12:31:37;;;;;;;13.23;9.45;;;21.40;99.90;;;;;;5042208;28;20064;-85
2021/09/25 12:34:07;;;;;;;14.30;11.10;;;21.40;99.90;;;;;;5015525;28;20041;-85
2021/09/25 12:36:35;;;;;;;16.73;11.45;;;21.40;99.90;;;;;;5045250;28;20033;-85
2021/09/25 12:39:20;;;;;;;13.48;9.85;;;21.40;99.90;;;;;;5008308;28;20029;-84
2021/09/25 12:41:56;;;;;;;16.02;10.35;;;21.30;99.90;;;;;;5022846;28;20047;-85
2021/09/25 12:44:27;;;;;;;16.52;10.77;;;21.30;99.90;;;;;;5023351;28;20065;-85
2021/09/25 12:46:57;;;;;;;10.88;8.77;;;21.20;99.90;;;;;;5005315;28;20079;-85
2021/09/25 12:49:34;;;;;;;12.55;8.95;;;21.20;99.90;;;;;;5032041;28;20028;-86
2021/09/25 12:52:09;;;;;;;15.15;9.75;;;21.30;99.90;;;;;;5006012;28;20023;-84
2021/09/25 12:54:45;;;;;;;13.48;9.93;;;21.20;99.90;;;;;;5035614;28;20108;-84
2021/09/25 12:57:28;;;;;;;15.23;10.15;;;21.20;99.90;;;;;;5019359;28;20048;-84
2021/09/25 13:00:08;;;;;;;12.43;8.27;;;21.20;99.90;;;;;;5020485;28;20021;-85